createdAt,value
2023-04-21T00:00:45.915Z,10.64
2023-04-21T00:03:17.970Z,10.65
2023-04-21T00:05:49.680Z,10.65
2023-04-21T00:08:21.558Z,10.65
2023-04-21T00:10:53.046Z,10.68
2023-04-21T00:13:24.851Z,10.69
2023-04-21T00:15:56.423Z,10.72
2023-04-21T00:18:28.291Z,10.70
2023-04-21T00:20:59.758Z,10.76
2023-04-21T00:23:31.694Z,10.76
2023-04-21T00:26:03.208Z,10.27
2023-04-21T00:28:35.271Z,10.74
2023-04-21T00:31:06.782Z,10.73
2023-04-21T00:33:38.606Z,10.76
2023-04-21T00:36:10.091Z,10.78
2023-04-21T00:38:41.872Z,10.76
2023-04-21T00:41:13.349Z,10.78
2023-04-21T00:43:45.200Z,10.73
2023-04-21T00:46:16.823Z,10.69
2023-04-21T00:48:48.663Z,10.66
2023-04-21T00:51:20.127Z,10.59
2023-04-21T00:53:51.599Z,10.55
2023-04-21T00:56:23.066Z,10.51
2023-04-21T00:58:54.563Z,10.45
2023-04-21T01:01:26.050Z,10.41
2023-04-21T01:03:58.148Z,10.32
2023-04-21T01:06:29.781Z,10.30
2023-04-21T01:09:01.653Z,10.25
2023-04-21T01:11:33.130Z,10.22
2023-04-21T01:14:04.914Z,10.16
2023-04-21T01:16:36.449Z,10.09
2023-04-21T01:19:08.450Z,10.05
2023-04-21T01:21:39.923Z,10.01
2023-04-21T01:24:11.737Z,9.95
2023-04-21T01:26:43.242Z,9.88
2023-04-21T01:29:15.073Z,9.86
2023-04-21T01:31:46.608Z,9.84
2023-04-21T01:34:18.518Z,9.78
2023-04-21T01:36:50.018Z,9.75
2023-04-21T01:39:22.033Z,9.70
2023-04-21T01:41:53.481Z,9.68
2023-04-21T01:44:25.292Z,9.66
2023-04-21T01:46:56.762Z,9.64
2023-04-21T01:49:28.627Z,9.64
2023-04-21T01:52:00.103Z,9.60
2023-04-21T01:54:32.073Z,9.58
2023-04-21T01:57:03.598Z,9.53
2023-04-21T01:59:35.467Z,9.48
2023-04-21T02:02:07.027Z,9.48
2023-04-21T02:04:38.776Z,9.45
2023-04-21T02:07:10.330Z,9.47
2023-04-21T02:09:42.189Z,9.48
2023-04-21T02:12:13.740Z,9.51
2023-04-21T02:14:45.469Z,9.50
2023-04-21T02:17:16.928Z,9.49
2023-04-21T02:19:48.660Z,9.49
2023-04-21T02:22:20.145Z,9.49
2023-04-21T02:24:51.634Z,9.49
2023-04-21T02:27:23.089Z,9.50
2023-04-21T02:29:54.568Z,9.52
2023-04-21T02:32:26.427Z,9.46
2023-04-21T02:34:58.446Z,9.48
2023-04-21T02:37:29.934Z,9.47
2023-04-21T02:40:01.796Z,9.43
2023-04-21T02:42:33.307Z,9.41
2023-04-21T02:45:05.104Z,9.42
2023-04-21T02:47:36.638Z,9.37
2023-04-21T02:50:08.476Z,9.37
2023-04-21T02:52:39.957Z,9.34
2023-04-21T02:55:11.900Z,9.33
2023-04-21T02:57:43.379Z,9.28
2023-04-21T03:00:15.214Z,9.26
2023-04-21T03:02:47.384Z,9.23
2023-04-21T03:05:19.008Z,9.19
2023-04-21T03:07:50.518Z,9.16
2023-04-21T03:10:22.018Z,9.15
2023-04-21T03:12:53.553Z,9.09
2023-04-21T03:15:25.039Z,9.05
2023-04-21T03:17:56.587Z,9.03
2023-04-21T03:20:28.101Z,9.01
2023-04-21T03:22:59.612Z,9.00
2023-04-21T03:25:31.093Z,8.94
2023-04-21T03:28:02.607Z,8.90
2023-04-21T03:30:34.111Z,8.91
2023-04-21T03:33:05.922Z,8.88
2023-04-21T03:35:37.388Z,8.82
2023-04-21T03:38:09.054Z,8.86
2023-04-21T03:40:40.528Z,8.86
2023-04-21T03:43:12.023Z,8.81
2023-04-21T03:45:43.626Z,8.77
2023-04-21T03:48:15.362Z,8.76
2023-04-21T03:50:46.840Z,8.72
2023-04-21T03:53:18.704Z,8.73
2023-04-21T03:55:50.176Z,8.75
2023-04-21T03:58:21.940Z,8.72
2023-04-21T04:00:53.420Z,8.72
2023-04-21T04:03:25.392Z,8.71
2023-04-21T04:05:56.996Z,8.71
2023-04-21T04:08:28.772Z,8.71
2023-04-21T04:11:00.265Z,8.72
2023-04-21T04:13:32.293Z,8.70
2023-04-21T04:16:03.841Z,8.72
2023-04-21T04:18:35.787Z,8.73
2023-04-21T04:21:07.270Z,8.82
2023-04-21T04:23:38.753Z,8.89
2023-04-21T04:26:10.247Z,8.92
2023-04-21T04:28:42.168Z,8.93
2023-04-21T04:31:13.787Z,9.02
2023-04-21T04:33:45.795Z,9.09
2023-04-21T04:36:17.253Z,9.11
2023-04-21T04:38:49.168Z,9.14
2023-04-21T04:41:20.643Z,9.19
2023-04-21T04:43:52.114Z,9.14
2023-04-21T04:46:23.654Z,7.71
2023-04-21T04:48:55.174Z,9.22
2023-04-21T04:51:26.640Z,9.16
2023-04-21T04:53:58.515Z,9.14
2023-04-21T04:56:30.038Z,9.30
2023-04-21T04:59:01.829Z,9.34
2023-04-21T05:01:33.470Z,9.42
2023-04-21T05:04:05.552Z,9.42
2023-04-21T05:06:37.115Z,9.54
2023-04-21T05:09:09.083Z,9.60
2023-04-21T05:11:40.566Z,9.78
2023-04-21T05:14:12.327Z,9.85
2023-04-21T05:16:43.815Z,9.83
2023-04-21T05:19:18.112Z,9.91
2023-04-21T05:21:50.192Z,10.10
2023-04-21T05:24:21.846Z,10.18
2023-04-21T05:26:53.339Z,10.28
2023-04-21T05:29:25.227Z,10.38
2023-04-21T05:31:56.783Z,10.39
2023-04-21T05:34:28.667Z,10.46
2023-04-21T05:37:00.175Z,10.62
2023-04-21T05:39:31.858Z,10.73
2023-04-21T05:42:03.349Z,10.79
2023-04-21T05:44:35.224Z,10.89
2023-04-21T05:47:06.700Z,10.98
2023-04-21T05:49:38.200Z,11.09
2023-04-21T05:52:09.705Z,11.24
2023-04-21T05:54:41.465Z,11.24
2023-04-21T05:57:12.950Z,11.31
2023-04-21T05:59:44.652Z,11.52
2023-04-21T06:02:16.204Z,11.66
2023-04-21T06:04:48.463Z,11.82
2023-04-21T06:07:20.088Z,11.95
2023-04-21T06:09:51.569Z,12.05
2023-04-21T06:12:23.040Z,12.18
2023-04-21T06:14:54.538Z,12.20
2023-04-21T06:17:26.064Z,12.40
2023-04-21T06:19:57.851Z,12.52
2023-04-21T06:22:29.322Z,12.44
2023-04-21T06:25:01.019Z,12.62
2023-04-21T06:27:32.512Z,12.89
2023-04-21T06:30:04.236Z,12.92
2023-04-21T06:32:35.855Z,13.00
2023-04-21T06:35:07.697Z,13.06
2023-04-21T06:37:39.168Z,13.22
2023-04-21T06:40:10.957Z,13.44
2023-04-21T06:42:42.446Z,13.53
2023-04-21T06:45:14.317Z,13.79
2023-04-21T06:47:45.863Z,14.15
2023-04-21T06:50:17.348Z,13.64
2023-04-21T06:52:49.127Z,13.88
2023-04-21T06:55:20.609Z,13.91
2023-04-21T06:57:52.082Z,14.22
2023-04-21T07:00:23.541Z,14.26
2023-04-21T07:02:55.198Z,14.48
2023-04-21T07:05:26.739Z,14.46
2023-04-21T07:07:58.642Z,14.65
2023-04-21T07:10:30.145Z,14.90
2023-04-21T07:13:02.031Z,15.01
2023-04-21T07:15:33.532Z,15.18
2023-04-21T07:18:05.421Z,15.24
2023-04-21T07:20:36.934Z,15.43
2023-04-21T07:23:08.599Z,15.62
2023-04-21T07:25:40.071Z,15.72
2023-04-21T07:28:12.044Z,15.51
2023-04-21T07:30:43.609Z,15.74
2023-04-21T07:33:15.483Z,16.08
2023-04-21T07:35:46.964Z,16.00
2023-04-21T07:38:18.720Z,16.40
2023-04-21T07:40:50.200Z,16.21
2023-04-21T07:43:21.697Z,16.55
2023-04-21T07:45:53.231Z,16.84
2023-04-21T07:48:24.977Z,16.97
2023-04-21T07:50:56.442Z,17.61
2023-04-21T07:53:28.417Z,17.06
2023-04-21T07:55:59.903Z,17.33
2023-04-21T07:58:31.740Z,17.72
2023-04-21T08:01:03.213Z,17.65
2023-04-21T08:03:35.181Z,17.66
2023-04-21T08:06:06.842Z,18.17
2023-04-21T08:08:38.884Z,18.57
2023-04-21T08:11:11.049Z,18.48
2023-04-21T08:13:42.921Z,18.43
2023-04-21T08:16:14.517Z,18.33
2023-04-21T08:18:46.320Z,18.74
2023-04-21T08:21:17.791Z,18.78
2023-04-21T08:23:49.289Z,18.98
2023-04-21T08:26:20.777Z,18.54
2023-04-21T08:28:52.343Z,19.20
2023-04-21T08:31:23.879Z,19.36
2023-04-21T08:34:02.105Z,19.70
2023-04-21T08:36:34.156Z,19.46
2023-04-21T08:39:05.858Z,19.81
2023-04-21T08:41:37.348Z,19.82
2023-04-21T08:44:09.039Z,20.72
2023-04-21T08:46:40.487Z,20.93
2023-04-21T08:49:12.209Z,21.12
2023-04-21T08:51:43.700Z,21.29
2023-04-21T08:54:15.541Z,21.45
2023-04-21T08:56:47.050Z,21.54
2023-04-21T08:59:18.827Z,21.06
2023-04-21T09:01:50.528Z,21.16
2023-04-21T09:04:22.573Z,21.13
2023-04-21T09:06:54.304Z,21.47
2023-04-21T09:09:26.134Z,21.68
2023-04-21T09:11:57.646Z,21.84
2023-04-21T09:14:29.469Z,22.03
2023-04-21T09:17:01.104Z,22.36
2023-04-21T09:19:32.948Z,21.99
2023-04-21T09:22:04.431Z,21.84
2023-04-21T09:24:36.140Z,21.54
2023-04-21T09:27:07.615Z,22.14
2023-04-21T09:29:39.477Z,22.21
2023-04-21T09:32:11.035Z,21.66
2023-04-21T09:34:42.965Z,22.05
2023-04-21T09:37:16.604Z,22.33
2023-04-21T09:40:04.282Z,22.36
2023-04-21T09:42:38.956Z,22.57
2023-04-21T09:47:46.582Z,22.71
2023-04-21T09:50:26.749Z,22.69
2023-04-21T09:53:07.558Z,23.36
2023-04-21T09:55:39.439Z,22.88
2023-04-21T09:58:10.912Z,22.97
2023-04-21T10:00:42.400Z,23.18
2023-04-21T10:03:14.105Z,22.97
2023-04-21T10:05:46.158Z,23.45
2023-04-21T10:08:17.693Z,22.69
2023-04-21T10:10:49.465Z,23.05
2023-04-21T10:13:20.955Z,23.14
2023-04-21T10:15:52.471Z,23.11
2023-04-21T10:18:23.976Z,23.49
2023-04-21T10:20:55.498Z,23.17
2023-04-21T10:23:27.420Z,22.82
2023-04-21T10:25:58.889Z,23.44
2023-04-21T10:28:30.367Z,23.60
2023-04-21T10:31:01.862Z,23.31
2023-04-21T10:33:33.698Z,23.78
2023-04-21T10:36:05.176Z,23.44
2023-04-21T10:38:36.660Z,23.15
2023-04-21T10:41:08.134Z,23.60
2023-04-21T10:43:39.894Z,24.17
2023-04-21T10:46:11.347Z,24.61
2023-04-21T10:48:43.002Z,24.45
2023-04-21T10:51:14.487Z,23.61
2023-04-21T10:53:45.986Z,24.43
2023-04-21T10:56:17.461Z,23.07
2023-04-21T10:58:48.943Z,23.36
2023-04-21T11:01:20.486Z,23.84
2023-04-21T11:03:52.172Z,24.06
2023-04-21T11:06:23.715Z,23.84
2023-04-21T11:08:55.260Z,23.83
2023-04-21T11:11:26.768Z,23.70
2023-04-21T11:13:58.606Z,23.94
2023-04-21T11:16:30.119Z,24.04
2023-04-21T11:19:02.025Z,24.78
2023-04-21T11:21:33.497Z,24.55
2023-04-21T11:24:05.425Z,24.99
2023-04-21T11:26:36.914Z,24.56
2023-04-21T11:29:08.733Z,24.84
2023-04-21T11:31:40.370Z,24.26
2023-04-21T11:34:12.426Z,24.51
2023-04-21T11:36:43.905Z,24.59
2023-04-21T11:39:15.409Z,24.83
2023-04-21T11:41:46.875Z,24.53
2023-04-21T11:44:18.606Z,24.56
2023-04-21T11:46:50.202Z,24.60
2023-04-21T11:49:22.090Z,25.10
2023-04-21T11:51:53.549Z,25.59
2023-04-21T11:54:25.316Z,25.48
2023-04-21T11:56:56.784Z,24.60
2023-04-21T11:59:28.533Z,24.80
2023-04-21T12:02:00.164Z,24.47
2023-04-21T12:04:34.246Z,24.24
2023-04-21T12:07:06.018Z,24.88
2023-04-21T12:09:39.089Z,25.12
2023-04-21T12:12:10.552Z,25.12
2023-04-21T12:14:43.725Z,25.15
2023-04-21T12:17:15.232Z,24.73
2023-04-21T12:19:47.096Z,24.79
2023-04-21T12:22:18.616Z,25.61
2023-04-21T12:24:50.120Z,25.18
2023-04-21T12:27:21.589Z,24.60
2023-04-21T12:29:53.364Z,24.80
2023-04-21T12:32:24.853Z,24.05
2023-04-21T12:34:56.340Z,22.98
2023-04-21T12:37:27.834Z,22.94
2023-04-21T12:39:59.602Z,24.23
2023-04-21T12:42:31.111Z,24.54
2023-04-21T12:45:02.827Z,24.34
2023-04-21T12:47:34.342Z,24.20
2023-04-21T12:50:06.346Z,24.50
2023-04-21T12:52:37.846Z,24.49
2023-04-21T12:55:09.690Z,24.42
2023-04-21T12:57:41.173Z,23.68
2023-04-21T13:00:13.006Z,24.19
2023-04-21T13:02:44.687Z,24.35
2023-04-21T13:05:16.344Z,25.43
2023-04-21T13:07:47.826Z,24.85
2023-04-21T13:10:19.367Z,23.37
2023-04-21T13:12:50.864Z,24.20
2023-04-21T13:15:22.342Z,24.93
2023-04-21T13:17:53.881Z,24.87
2023-04-21T13:20:25.397Z,26.02
2023-04-21T13:22:56.915Z,26.20
2023-04-21T13:25:28.385Z,24.66
2023-04-21T13:28:00.180Z,24.06
2023-04-21T13:30:31.660Z,25.98
2023-04-21T13:33:03.213Z,24.55
2023-04-21T13:35:34.703Z,25.40
2023-04-21T13:38:06.446Z,24.72
2023-04-21T13:40:37.907Z,24.74
2023-04-21T13:43:09.624Z,24.67
2023-04-21T13:45:41.085Z,24.81
2023-04-21T13:48:12.943Z,25.44
2023-04-21T13:50:44.514Z,24.83
2023-04-21T13:53:17.161Z,24.23
2023-04-21T13:55:49.604Z,23.90
2023-04-21T13:58:21.398Z,25.44
2023-04-21T14:00:52.857Z,24.86
2023-04-21T14:03:24.771Z,25.24
2023-04-21T14:05:56.456Z,25.67
2023-04-21T14:08:28.334Z,25.59
2023-04-21T14:10:59.824Z,25.79
2023-04-21T14:13:38.147Z,26.62
2023-04-21T14:16:13.910Z,25.78
2023-04-21T14:18:45.456Z,26.31
2023-04-21T14:21:17.512Z,26.62
2023-04-21T14:23:48.994Z,26.25
2023-04-21T14:26:20.865Z,26.98
2023-04-21T14:28:52.334Z,26.21
2023-04-21T14:31:24.180Z,26.46
2023-04-21T14:33:55.681Z,25.90
2023-04-21T14:36:27.409Z,25.90
2023-04-21T14:38:58.898Z,24.76
2023-04-21T14:41:30.798Z,24.37
2023-04-21T14:44:02.294Z,23.51
2023-04-21T14:46:34.058Z,24.46
2023-04-21T14:49:05.594Z,24.88
2023-04-21T14:51:37.346Z,24.97
2023-04-21T14:54:08.854Z,25.27
2023-04-21T14:56:40.666Z,26.09
2023-04-21T14:59:12.172Z,25.83
2023-04-21T15:01:45.430Z,26.18
2023-04-21T15:04:17.260Z,24.96
2023-04-21T15:06:49.392Z,24.46
2023-04-21T15:09:20.922Z,24.82
2023-04-21T15:11:52.393Z,24.62
2023-04-21T15:14:23.874Z,24.83
2023-04-21T15:16:55.480Z,24.37
2023-04-21T15:19:29.993Z,24.79
2023-04-21T15:22:01.820Z,24.85
2023-04-21T15:24:33.286Z,24.37
2023-04-21T15:27:05.191Z,24.68
2023-04-21T15:29:37.058Z,24.41
2023-04-21T15:32:09.106Z,23.62
2023-04-21T15:34:40.568Z,23.47
2023-04-21T15:37:12.364Z,23.70
2023-04-21T15:39:44.101Z,23.44
2023-04-21T15:42:15.657Z,23.01
2023-04-21T15:44:47.163Z,23.09
2023-04-21T15:47:18.659Z,23.06
2023-04-21T15:49:50.162Z,22.97
2023-04-21T15:52:21.652Z,22.28
2023-04-21T15:54:53.210Z,21.83
2023-04-21T15:57:24.687Z,21.85
2023-04-21T15:59:56.194Z,21.56
2023-04-21T16:02:27.887Z,21.13
2023-04-21T16:05:00.185Z,20.99
2023-04-21T16:07:31.886Z,20.87
2023-04-21T16:10:03.737Z,20.55
2023-04-21T16:12:35.278Z,20.44
2023-04-21T16:15:22.341Z,20.59
2023-04-21T16:17:55.609Z,20.47
2023-04-21T16:20:27.625Z,20.52
2023-04-21T16:22:59.161Z,20.34
2023-04-21T16:25:31.100Z,20.45
2023-04-21T16:28:02.724Z,20.00
2023-04-21T16:30:34.623Z,20.10
2023-04-21T16:33:06.112Z,19.99
2023-04-21T16:35:37.885Z,20.13
2023-04-21T16:38:09.454Z,20.06
2023-04-21T16:40:41.318Z,19.82
2023-04-21T16:43:12.871Z,19.85
2023-04-21T16:45:44.459Z,19.57
2023-04-21T16:48:16.043Z,19.80
2023-04-21T16:50:47.648Z,19.53
2023-04-21T16:53:19.138Z,19.29
2023-04-21T16:55:50.633Z,19.35
2023-04-21T16:58:22.149Z,19.34
2023-04-21T17:00:53.768Z,19.33
2023-04-21T17:03:25.505Z,19.29
2023-04-21T17:05:57.118Z,19.32
2023-04-21T17:08:28.604Z,19.23
2023-04-21T17:11:00.421Z,19.27
2023-04-21T17:13:31.910Z,19.19
2023-04-21T17:16:03.829Z,19.06
2023-04-21T17:18:35.359Z,19.10
2023-04-21T17:21:07.147Z,19.09
2023-04-21T17:23:39.022Z,19.03
2023-04-21T17:26:12.921Z,18.90
2023-04-21T17:28:45.022Z,18.80
2023-04-21T17:31:16.692Z,18.80
2023-04-21T17:33:48.460Z,18.64
2023-04-21T17:36:19.985Z,18.59
2023-04-21T17:38:51.566Z,18.53
2023-04-21T17:41:23.050Z,18.49
2023-04-21T17:43:54.570Z,18.44
2023-04-21T17:46:26.079Z,18.30
2023-04-21T17:48:57.887Z,18.16
2023-04-21T17:51:29.359Z,18.17
2023-04-21T17:54:00.850Z,18.01
2023-04-21T17:56:32.358Z,17.97
2023-04-21T17:59:03.886Z,17.93
2023-04-21T18:01:35.405Z,17.79
2023-04-21T18:04:07.714Z,17.74
2023-04-21T18:06:39.521Z,17.68
2023-04-21T18:09:11.034Z,17.62
2023-04-21T18:11:42.521Z,17.53
2023-04-21T18:14:14.338Z,17.43
2023-04-21T18:16:45.825Z,17.40
2023-04-21T18:19:17.336Z,17.33
2023-04-21T18:21:48.829Z,17.27
2023-04-21T18:24:20.586Z,17.22
2023-04-21T18:26:52.075Z,17.12
2023-04-21T18:29:23.550Z,17.01
2023-04-21T18:31:55.151Z,16.98
2023-04-21T18:34:27.083Z,16.92
2023-04-21T18:36:58.542Z,16.88
2023-04-21T18:39:30.221Z,16.76
2023-04-21T18:42:01.693Z,16.72
2023-04-21T18:44:33.566Z,16.69
2023-04-21T18:47:05.091Z,16.65
2023-04-21T18:49:36.651Z,16.56
2023-04-21T18:52:08.121Z,16.52
2023-04-21T18:54:39.962Z,16.42
2023-04-21T18:57:11.639Z,16.35
2023-04-21T18:59:43.540Z,16.29
2023-04-21T19:02:15.146Z,16.28
2023-04-21T19:04:46.998Z,16.24
2023-04-21T19:07:18.536Z,16.18
2023-04-21T19:09:50.021Z,16.16
2023-04-21T19:12:21.499Z,16.06
2023-04-21T19:14:53.502Z,15.99
2023-04-21T19:17:25.757Z,16.02
2023-04-21T19:19:57.297Z,15.92
2023-04-21T19:22:28.773Z,15.87
2023-04-21T19:25:00.294Z,15.83
2023-04-21T19:27:31.779Z,15.78
2023-04-21T19:30:03.289Z,15.72
2023-04-21T19:32:34.897Z,15.70
2023-04-21T19:35:06.433Z,15.64
2023-04-21T19:37:38.093Z,15.61
2023-04-21T19:40:09.564Z,15.52
2023-04-21T19:42:41.832Z,15.49
2023-04-21T19:45:13.535Z,15.43
2023-04-21T19:47:45.096Z,15.38
2023-04-21T19:50:16.626Z,15.33
2023-04-21T19:52:48.507Z,15.30
2023-04-21T19:55:23.111Z,15.26
2023-04-21T19:57:54.615Z,15.23
2023-04-21T20:00:26.088Z,15.15
2023-04-21T20:02:57.659Z,15.15
2023-04-21T20:05:29.184Z,15.10
2023-04-21T20:08:01.034Z,15.05
2023-04-21T20:10:32.518Z,14.99
2023-04-21T20:13:04.326Z,14.99
2023-04-21T20:15:35.832Z,14.95
2023-04-21T20:18:07.597Z,14.84
2023-04-21T20:20:39.181Z,14.82
2023-04-21T20:23:11.266Z,14.79
2023-04-21T20:25:42.728Z,14.82
2023-04-21T20:28:14.391Z,14.82
2023-04-21T20:30:45.867Z,14.79
2023-04-21T20:33:17.662Z,14.77
2023-04-21T20:35:49.116Z,14.72
2023-04-21T20:38:20.906Z,14.70
2023-04-21T20:40:52.425Z,14.65
2023-04-21T20:43:24.229Z,14.57
2023-04-21T20:45:55.692Z,14.55
2023-04-21T20:48:27.215Z,14.54
2023-04-21T20:50:58.881Z,14.48
2023-04-21T20:53:30.375Z,14.45
2023-04-21T20:56:02.152Z,14.37
2023-04-21T20:58:33.620Z,14.33
2023-04-21T21:01:05.456Z,14.32
2023-04-21T21:03:37.370Z,14.23
2023-04-21T21:06:09.182Z,14.20
2023-04-21T21:08:40.652Z,14.17
2023-04-21T21:11:12.144Z,14.15
2023-04-21T21:13:43.599Z,14.10
2023-04-21T21:16:15.098Z,14.05
2023-04-21T21:18:46.577Z,14.01
2023-04-21T21:21:18.266Z,13.98
2023-04-21T21:23:49.737Z,13.94
2023-04-21T21:26:21.518Z,13.94
2023-04-21T21:28:52.980Z,13.93
2023-04-21T21:31:24.790Z,13.88
2023-04-21T21:33:56.314Z,13.84
2023-04-21T21:36:28.164Z,13.81
2023-04-21T21:38:59.617Z,13.79
2023-04-21T21:41:31.118Z,13.71
2023-04-21T21:44:02.595Z,13.71
2023-04-21T21:46:34.083Z,13.67
2023-04-21T21:49:05.571Z,13.63
2023-04-21T21:51:37.387Z,13.58
2023-04-21T21:54:08.865Z,13.53
2023-04-21T21:56:40.651Z,13.47
2023-04-21T21:59:12.129Z,13.43
2023-04-21T22:01:43.977Z,13.40
2023-04-21T22:04:15.633Z,13.36
2023-04-21T22:06:47.640Z,13.28
2023-04-21T22:09:19.126Z,13.23
2023-04-21T22:11:50.660Z,13.19
2023-04-21T22:14:23.696Z,13.13
2023-04-21T22:16:55.565Z,13.11
2023-04-21T22:19:27.056Z,13.06
2023-04-21T22:21:58.913Z,12.98
2023-04-21T22:24:30.402Z,12.99
2023-04-21T22:27:02.335Z,12.91
2023-04-21T22:29:33.806Z,12.91
2023-04-21T22:32:05.566Z,12.84
2023-04-21T22:34:37.049Z,12.80
2023-04-21T22:37:08.827Z,12.81
2023-04-21T22:39:40.565Z,12.76
2023-04-21T22:42:12.173Z,12.72
2023-04-21T22:44:43.668Z,12.68
2023-04-21T22:47:15.416Z,12.65
2023-04-21T22:49:46.902Z,12.60
2023-04-21T22:52:18.700Z,12.57
2023-04-21T22:54:50.185Z,12.56
2023-04-21T22:57:22.266Z,12.50
2023-04-21T22:59:53.737Z,12.49
2023-04-21T23:02:25.775Z,12.46
2023-04-21T23:04:57.384Z,12.42
2023-04-21T23:07:29.044Z,12.37
2023-04-21T23:10:00.843Z,12.35
2023-04-21T23:12:32.297Z,12.33
2023-04-21T23:15:04.105Z,12.32
2023-04-21T23:17:35.598Z,12.31
2023-04-21T23:20:07.490Z,12.28
2023-04-21T23:22:38.972Z,12.25
2023-04-21T23:25:10.801Z,12.24
2023-04-21T23:27:42.291Z,12.22
2023-04-21T23:30:14.299Z,12.20
2023-04-21T23:32:45.904Z,12.20
2023-04-21T23:35:17.751Z,12.19
2023-04-21T23:37:49.221Z,12.19
2023-04-21T23:40:20.900Z,12.14
2023-04-21T23:42:52.366Z,12.11
2023-04-21T23:45:24.149Z,12.06
2023-04-21T23:47:55.659Z,12.03
2023-04-21T23:50:27.620Z,12.00
2023-04-21T23:52:59.078Z,11.96
2023-04-21T23:55:30.809Z,11.91
2023-04-21T23:58:02.280Z,11.87
